»·PEaware :: N285 KASE-KAPA

N285 :: KASE-KAPA

FLIGHT INFORMATION

Flight Status: Arrived
Operator: Privately registered:
United States
More flights under this callsign
Pilot: Leo F. (613)
Aircraft: BEECH AIRCRAFT SUPER KING AIR COMMUTER
(BE20)
More flights by this aircraft type
Origin: KASE Aspen-Pitkin Co/Sardy
United States
Destination: KAPA Centennial
United States
More flights between these airports :: More routes between these airports
Route: +LINDZ8 DBL V108 MURFE V160 LARKS
File this flight plan on PilotEdge
Remarks:
Altitude:
(Current/Filed)
20,000ft
Speed:
(Current/Filed)
270kts
Departed: 07-Jan-18 02:24 PM
Arrived: 07-Jan-18 03:02 PM
Distance/Time
Traveled:
96nm/0:37
Distance/Time
To Go:
Arrived

Flight Plot

Page will automatically refresh every two minutes.

Flight plan parsing failed; only flown route is shown


Map Options




Map Legend


Flown Route
Filed Route
Departure Airport
Arrival Airport
Navaid (VOR, NDB)
Fix

Horizontal Profiles

Position Reports

Time Latitude Longitude Heading Altitude Ground
Speed
07-Jan-18 13:56 39.218794 -106.864536 169 7740ft 0kts
07-Jan-18 13:57 39.218792 -106.864536 169 7740ft 0kts
07-Jan-18 13:58 39.218792 -106.864536 169 7740ft 0kts
07-Jan-18 13:59 39.218790 -106.864535 169 7740ft 0kts
07-Jan-18 14:00 39.218789 -106.864535 169 7740ft 0kts
07-Jan-18 14:01 39.218788 -106.864535 169 7740ft 0kts
07-Jan-18 14:02 39.218787 -106.864535 169 7740ft 0kts
07-Jan-18 14:03 39.218786 -106.864534 169 7740ft 0kts
07-Jan-18 14:04 39.218785 -106.864534 169 7740ft 0kts
07-Jan-18 14:05 39.218784 -106.864534 169 7740ft 0kts
07-Jan-18 14:06 39.218784 -106.864534 169 7740ft 0kts
07-Jan-18 14:07 39.218783 -106.864534 169 7740ft 0kts
07-Jan-18 14:08 39.218782 -106.864533 169 7740ft 0kts
07-Jan-18 14:09 39.218780 -106.864533 169 7740ft 0kts
07-Jan-18 14:10 39.218779 -106.864533 169 7740ft 0kts
07-Jan-18 14:11 39.218778 -106.864533 169 7740ft 0kts
07-Jan-18 14:12 39.218777 -106.864532 169 7740ft 0kts
07-Jan-18 14:13 39.218776 -106.864532 169 7740ft 0kts
07-Jan-18 14:14 39.218776 -106.864532 169 7740ft 0kts
07-Jan-18 14:15 39.218775 -106.864532 169 7740ft 0kts
07-Jan-18 14:16 39.218774 -106.864531 169 7740ft 0kts
07-Jan-18 14:17 39.218773 -106.864531 169 7740ft 0kts
07-Jan-18 14:18 39.218771 -106.864531 169 7740ft 0kts
07-Jan-18 14:19 39.218770 -106.864531 169 7740ft 0kts
07-Jan-18 14:20 39.218769 -106.864530 169 7740ft 0kts
07-Jan-18 14:21 39.218768 -106.864530 169 7740ft 0kts
07-Jan-18 14:22 39.218338 -106.864694 213 7740ft 2kts
07-Jan-18 14:23 39.217526 -106.864948 168 7740ft 9kts
07-Jan-18 14:24 39.213787 -106.863172 159 7740ft 30kts
07-Jan-18 14:25 39.212346 -106.862508 169 7740ft 0kts
07-Jan-18 14:26 39.212345 -106.862508 169 7740ft 0kts
07-Jan-18 14:27 39.212344 -106.862507 169 7740ft 0kts
07-Jan-18 14:28 39.212344 -106.862507 169 7740ft 0kts
07-Jan-18 14:29 39.212002 -106.863554 338 7740ft 0kts
07-Jan-18 14:30 39.216280 -106.865636 339 7741ft 94kts
07-Jan-18 14:31 39.256738 -106.879759 348 9252ft 178kts
07-Jan-18 14:32 39.282145 -106.931934 284 11104ft 191kts
07-Jan-18 14:33 39.291599 -106.999909 284 12924ft 191kts
07-Jan-18 14:34 39.315765 -107.057142 316 14733ft 182kts
07-Jan-18 14:35 39.350081 -107.104383 314 16529ft 179kts
07-Jan-18 14:36 39.389969 -107.118070 39 18322ft 195kts
07-Jan-18 14:37 39.411209 -107.044850 65 19303ft 242kts
07-Jan-18 14:38 39.428533 -106.953495 67 19313ft 275kts
07-Jan-18 14:39 39.431157 -106.848681 94 19304ft 315kts
07-Jan-18 14:40 39.407969 -106.737070 99 19289ft 325kts
07-Jan-18 14:41 39.383110 -106.624087 98 19282ft 326kts
07-Jan-18 14:42 39.359224 -106.512113 98 19271ft 327kts
07-Jan-18 14:43 39.334936 -106.397454 98 19259ft 327kts
07-Jan-18 14:44 39.310879 -106.284350 98 19250ft 327kts
07-Jan-18 14:45 39.286701 -106.171364 98 19247ft 327kts
07-Jan-18 14:46 39.263135 -106.061965 98 19248ft 326kts
07-Jan-18 14:47 39.238201 -105.945606 98 19247ft 325kts
07-Jan-18 14:48 39.214573 -105.839304 98 19230ft 286kts
07-Jan-18 14:49 39.194145 -105.746503 96 19238ft 255kts
07-Jan-18 14:50 39.175445 -105.660839 95 19243ft 243kts
07-Jan-18 14:51 39.157300 -105.578002 95 19250ft 237kts
07-Jan-18 14:52 39.143324 -105.496862 66 19052ft 222kts
07-Jan-18 14:53 39.178606 -105.427785 42 17317ft 250kts
07-Jan-18 14:54 39.225367 -105.355590 43 15328ft 269kts
07-Jan-18 14:55 39.269668 -105.286871 41 15096ft 230kts
07-Jan-18 14:56 39.310801 -105.227635 40 15076ft 214kts
07-Jan-18 14:57 39.345983 -105.178036 40 14138ft 240kts
07-Jan-18 14:58 39.402324 -105.101898 40 12404ft 258kts
07-Jan-18 14:59 39.453293 -105.035185 39 11075ft 254kts
07-Jan-18 15:00 39.491901 -104.985600 40 10490ft 207kts
07-Jan-18 15:01 39.535471 -104.947602 2 8889ft 186kts
07-Jan-18 15:02 39.586756 -104.948398 357 7718ft 172kts
07-Jan-18 15:03 39.630571 -104.942470 17 7700ft 155kts
07-Jan-18 15:04 39.660937 -104.909231 60 7757ft 146kts
07-Jan-18 15:05 39.664023 -104.856963 127 7301ft 165kts
07-Jan-18 15:06 39.619986 -104.852288 188 6688ft 147kts
07-Jan-18 15:07 39.584175 -104.851454 178 5912ft 106kts
07-Jan-18 15:08 39.574699 -104.851005 162 5887ft 10kts
07-Jan-18 15:09 39.577151 -104.847834 337 5887ft 9kts
07-Jan-18 15:10 39.577202 -104.847868 327 5887ft 0kts

Navigation Log

Ident Type
Flight plan parsing failed, navigation log unavailable